sensor_id;sensor_type;location;lat;lon;timestamp;P1;durP1;ratioP1;P2;durP2;ratioP2
68680;SDS011;55836;49.858;6.756;2023-12-20T00:01:36;2.23;;;2.03;;
68680;SDS011;55836;49.858;6.756;2023-12-20T00:04:02;2.60;;;2.13;;
68680;SDS011;55836;49.858;6.756;2023-12-20T00:06:28;4.13;;;2.30;;
68680;SDS011;55836;49.858;6.756;2023-12-20T00:08:54;2.37;;;2.17;;
68680;SDS011;55836;49.858;6.756;2023-12-20T00:11:20;2.10;;;1.90;;
68680;SDS011;55836;49.858;6.756;2023-12-20T00:13:49;2.00;;;1.90;;
68680;SDS011;55836;49.858;6.756;2023-12-20T00:16:15;2.27;;;2.03;;
68680;SDS011;55836;49.858;6.756;2023-12-20T00:18:41;1.90;;;1.70;;
68680;SDS011;55836;49.858;6.756;2023-12-20T00:21:07;2.47;;;1.97;;
68680;SDS011;55836;49.858;6.756;2023-12-20T00:23:33;2.80;;;2.00;;
68680;SDS011;55836;49.858;6.756;2023-12-20T00:25:59;2.50;;;2.30;;
68680;SDS011;55836;49.858;6.756;2023-12-20T00:28:25;2.40;;;2.00;;
68680;SDS011;55836;49.858;6.756;2023-12-20T00:30:51;2.70;;;1.70;;
68680;SDS011;55836;49.858;6.756;2023-12-20T00:33:17;2.10;;;1.90;;
68680;SDS011;55836;49.858;6.756;2023-12-20T00:35:44;2.63;;;2.40;;
68680;SDS011;55836;49.858;6.756;2023-12-20T00:38:09;2.10;;;1.90;;
68680;SDS011;55836;49.858;6.756;2023-12-20T00:40:36;2.03;;;1.80;;
68680;SDS011;55836;49.858;6.756;2023-12-20T00:43:02;2.00;;;1.70;;
68680;SDS011;55836;49.858;6.756;2023-12-20T00:45:28;1.80;;;1.67;;
68680;SDS011;55836;49.858;6.756;2023-12-20T00:47:54;1.93;;;1.73;;
68680;SDS011;55836;49.858;6.756;2023-12-20T00:50:20;1.97;;;1.73;;
68680;SDS011;55836;49.858;6.756;2023-12-20T00:52:46;2.83;;;2.07;;
68680;SDS011;55836;49.858;6.756;2023-12-20T00:55:12;1.83;;;1.73;;
68680;SDS011;55836;49.858;6.756;2023-12-20T00:57:39;2.97;;;1.90;;
68680;SDS011;55836;49.858;6.756;2023-12-20T01:00:05;2.03;;;1.77;;
68680;SDS011;55836;49.858;6.756;2023-12-20T01:02:31;2.07;;;1.80;;
68680;SDS011;55836;49.858;6.756;2023-12-20T01:04:57;2.20;;;2.00;;
68680;SDS011;55836;49.858;6.756;2023-12-20T01:07:23;1.93;;;1.73;;
68680;SDS011;55836;49.858;6.756;2023-12-20T01:09:49;2.20;;;1.60;;
68680;SDS011;55836;49.858;6.756;2023-12-20T01:12:15;1.93;;;1.67;;
68680;SDS011;55836;49.858;6.756;2023-12-20T01:14:41;2.37;;;1.90;;
68680;SDS011;55836;49.858;6.756;2023-12-20T01:17:07;2.33;;;1.90;;
68680;SDS011;55836;49.858;6.756;2023-12-20T01:19:33;2.03;;;1.80;;
68680;SDS011;55836;49.858;6.756;2023-12-20T01:21:59;2.47;;;2.20;;
68680;SDS011;55836;49.858;6.756;2023-12-20T01:24:25;2.70;;;1.80;;
68680;SDS011;55836;49.858;6.756;2023-12-20T01:26:51;4.43;;;1.83;;
68680;SDS011;55836;49.858;6.756;2023-12-20T01:29:17;1.93;;;1.60;;
68680;SDS011;55836;49.858;6.756;2023-12-20T01:31:43;3.20;;;1.80;;
68680;SDS011;55836;49.858;6.756;2023-12-20T01:34:09;5.27;;;1.87;;
68680;SDS011;55836;49.858;6.756;2023-12-20T01:36:35;2.07;;;1.90;;
68680;SDS011;55836;49.858;6.756;2023-12-20T01:39:01;2.23;;;1.93;;
68680;SDS011;55836;49.858;6.756;2023-12-20T01:41:27;2.30;;;2.00;;
68680;SDS011;55836;49.858;6.756;2023-12-20T01:43:53;2.03;;;1.87;;
68680;SDS011;55836;49.858;6.756;2023-12-20T01:46:19;4.40;;;2.20;;
68680;SDS011;55836;49.858;6.756;2023-12-20T01:48:45;2.87;;;2.40;;
68680;SDS011;55836;49.858;6.756;2023-12-20T01:51:11;2.00;;;1.90;;
68680;SDS011;55836;49.858;6.756;2023-12-20T01:53:38;2.50;;;1.90;;
68680;SDS011;55836;49.858;6.756;2023-12-20T01:56:07;2.33;;;1.97;;
68680;SDS011;55836;49.858;6.756;2023-12-20T01:58:34;2.40;;;1.90;;
68680;SDS011;55836;49.858;6.756;2023-12-20T02:01:00;3.97;;;2.03;;
68680;SDS011;55836;49.858;6.756;2023-12-20T02:03:26;2.47;;;2.20;;
68680;SDS011;55836;49.858;6.756;2023-12-20T02:05:52;2.57;;;2.10;;
68680;SDS011;55836;49.858;6.756;2023-12-20T02:08:18;2.20;;;2.00;;
68680;SDS011;55836;49.858;6.756;2023-12-20T02:10:44;2.23;;;2.03;;
68680;SDS011;55836;49.858;6.756;2023-12-20T02:13:10;1.90;;;1.73;;
68680;SDS011;55836;49.858;6.756;2023-12-20T02:15:36;1.80;;;1.70;;
68680;SDS011;55836;49.858;6.756;2023-12-20T02:18:03;2.33;;;2.13;;
68680;SDS011;55836;49.858;6.756;2023-12-20T02:20:29;2.17;;;1.97;;
68680;SDS011;55836;49.858;6.756;2023-12-20T02:22:55;2.80;;;2.57;;
68680;SDS011;55836;49.858;6.756;2023-12-20T02:25:21;3.63;;;2.53;;
68680;SDS011;55836;49.858;6.756;2023-12-20T02:27:47;3.10;;;2.50;;
68680;SDS011;55836;49.858;6.756;2023-12-20T02:30:14;2.73;;;2.53;;
68680;SDS011;55836;49.858;6.756;2023-12-20T02:32:40;3.23;;;2.70;;
68680;SDS011;55836;49.858;6.756;2023-12-20T02:35:06;3.03;;;2.77;;
68680;SDS011;55836;49.858;6.756;2023-12-20T02:37:32;3.60;;;3.00;;
68680;SDS011;55836;49.858;6.756;2023-12-20T02:39:59;3.67;;;2.67;;
68680;SDS011;55836;49.858;6.756;2023-12-20T02:42:25;3.47;;;2.90;;
68680;SDS011;55836;49.858;6.756;2023-12-20T02:44:51;3.90;;;2.77;;
68680;SDS011;55836;49.858;6.756;2023-12-20T02:47:17;3.40;;;3.10;;
68680;SDS011;55836;49.858;6.756;2023-12-20T02:49:43;3.37;;;2.77;;
68680;SDS011;55836;49.858;6.756;2023-12-20T02:52:09;3.33;;;3.03;;
68680;SDS011;55836;49.858;6.756;2023-12-20T02:54:37;3.00;;;2.70;;
68680;SDS011;55836;49.858;6.756;2023-12-20T02:57:03;3.27;;;2.97;;
68680;SDS011;55836;49.858;6.756;2023-12-20T02:59:29;2.80;;;2.50;;
68680;SDS011;55836;49.858;6.756;2023-12-20T03:01:55;2.70;;;2.50;;
68680;SDS011;55836;49.858;6.756;2023-12-20T03:04:21;3.00;;;2.70;;
68680;SDS011;55836;49.858;6.756;2023-12-20T03:06:47;3.37;;;3.07;;
68680;SDS011;55836;49.858;6.756;2023-12-20T03:09:13;3.00;;;2.70;;
68680;SDS011;55836;49.858;6.756;2023-12-20T03:11:39;3.83;;;2.90;;
68680;SDS011;55836;49.858;6.756;2023-12-20T03:14:05;3.17;;;2.83;;
68680;SDS011;55836;49.858;6.756;2023-12-20T03:16:31;2.63;;;2.43;;
68680;SDS011;55836;49.858;6.756;2023-12-20T03:18:58;3.27;;;2.90;;
68680;SDS011;55836;49.858;6.756;2023-12-20T03:21:24;3.27;;;2.93;;
68680;SDS011;55836;49.858;6.756;2023-12-20T03:23:50;3.60;;;2.97;;
68680;SDS011;55836;49.858;6.756;2023-12-20T03:26:15;3.30;;;3.00;;
68680;SDS011;55836;49.858;6.756;2023-12-20T03:28:41;3.07;;;2.83;;
68680;SDS011;55836;49.858;6.756;2023-12-20T03:31:09;3.33;;;2.90;;
68680;SDS011;55836;49.858;6.756;2023-12-20T03:33:36;3.17;;;2.60;;
68680;SDS011;55836;49.858;6.756;2023-12-20T03:36:02;2.60;;;2.40;;
68680;SDS011;55836;49.858;6.756;2023-12-20T03:38:28;2.60;;;2.40;;
68680;SDS011;55836;49.858;6.756;2023-12-20T03:40:53;2.93;;;2.47;;
68680;SDS011;55836;49.858;6.756;2023-12-20T03:43:19;2.53;;;2.30;;
68680;SDS011;55836;49.858;6.756;2023-12-20T03:45:45;2.97;;;2.43;;
68680;SDS011;55836;49.858;6.756;2023-12-20T03:48:14;2.73;;;2.53;;
68680;SDS011;55836;49.858;6.756;2023-12-20T03:50:40;4.13;;;2.37;;
68680;SDS011;55836;49.858;6.756;2023-12-20T03:53:06;2.83;;;2.53;;
68680;SDS011;55836;49.858;6.756;2023-12-20T03:55:32;2.30;;;2.10;;
68680;SDS011;55836;49.858;6.756;2023-12-20T03:57:58;2.50;;;1.83;;
68680;SDS011;55836;49.858;6.756;2023-12-20T04:00:24;4.87;;;2.60;;
68680;SDS011;55836;49.858;6.756;2023-12-20T04:02:50;3.43;;;2.40;;
68680;SDS011;55836;49.858;6.756;2023-12-20T04:05:16;2.53;;;2.20;;
68680;SDS011;55836;49.858;6.756;2023-12-20T04:07:42;2.40;;;1.90;;
68680;SDS011;55836;49.858;6.756;2023-12-20T04:10:08;3.97;;;2.20;;
68680;SDS011;55836;49.858;6.756;2023-12-20T04:12:35;4.33;;;2.53;;
68680;SDS011;55836;49.858;6.756;2023-12-20T04:15:00;2.97;;;1.93;;
68680;SDS011;55836;49.858;6.756;2023-12-20T04:17:28;4.33;;;2.30;;
68680;SDS011;55836;49.858;6.756;2023-12-20T04:19:54;2.53;;;2.30;;
68680;SDS011;55836;49.858;6.756;2023-12-20T04:22:20;3.93;;;2.13;;
68680;SDS011;55836;49.858;6.756;2023-12-20T04:24:46;2.60;;;2.03;;
68680;SDS011;55836;49.858;6.756;2023-12-20T04:27:12;4.13;;;3.10;;
68680;SDS011;55836;49.858;6.756;2023-12-20T04:29:38;2.70;;;2.20;;
68680;SDS011;55836;49.858;6.756;2023-12-20T04:32:04;3.97;;;1.70;;
68680;SDS011;55836;49.858;6.756;2023-12-20T04:34:30;4.30;;;1.77;;
68680;SDS011;55836;49.858;6.756;2023-12-20T04:36:56;6.53;;;3.03;;
68680;SDS011;55836;49.858;6.756;2023-12-20T04:39:22;2.50;;;1.80;;
68680;SDS011;55836;49.858;6.756;2023-12-20T04:41:48;3.40;;;1.77;;
68680;SDS011;55836;49.858;6.756;2023-12-20T04:44:15;2.47;;;1.50;;
68680;SDS011;55836;49.858;6.756;2023-12-20T04:46:41;2.60;;;2.00;;
68680;SDS011;55836;49.858;6.756;2023-12-20T04:49:07;3.13;;;1.70;;
68680;SDS011;55836;49.858;6.756;2023-12-20T04:51:33;2.70;;;1.47;;
68680;SDS011;55836;49.858;6.756;2023-12-20T04:53:59;4.33;;;1.67;;
68680;SDS011;55836;49.858;6.756;2023-12-20T04:56:25;1.90;;;1.70;;
68680;SDS011;55836;49.858;6.756;2023-12-20T04:58:51;4.40;;;2.10;;
68680;SDS011;55836;49.858;6.756;2023-12-20T05:01:17;4.97;;;2.03;;
68680;SDS011;55836;49.858;6.756;2023-12-20T05:03:43;3.13;;;1.90;;
68680;SDS011;55836;49.858;6.756;2023-12-20T05:06:10;3.13;;;1.77;;
68680;SDS011;55836;49.858;6.756;2023-12-20T05:08:36;4.13;;;1.90;;
68680;SDS011;55836;49.858;6.756;2023-12-20T05:11:02;2.60;;;2.30;;
68680;SDS011;55836;49.858;6.756;2023-12-20T05:13:28;2.93;;;2.70;;
68680;SDS011;55836;49.858;6.756;2023-12-20T05:15:54;2.07;;;1.57;;
68680;SDS011;55836;49.858;6.756;2023-12-20T05:18:20;2.60;;;1.70;;
68680;SDS011;55836;49.858;6.756;2023-12-20T05:20:47;3.57;;;1.67;;
68680;SDS011;55836;49.858;6.756;2023-12-20T05:23:14;1.67;;;1.57;;
68680;SDS011;55836;49.858;6.756;2023-12-20T05:25:40;4.20;;;2.27;;
68680;SDS011;55836;49.858;6.756;2023-12-20T05:28:06;2.83;;;2.37;;
68680;SDS011;55836;49.858;6.756;2023-12-20T05:30:32;2.87;;;1.70;;
68680;SDS011;55836;49.858;6.756;2023-12-20T05:32:57;5.27;;;2.00;;
68680;SDS011;55836;49.858;6.756;2023-12-20T05:35:23;3.40;;;1.90;;
68680;SDS011;55836;49.858;6.756;2023-12-20T05:37:49;3.10;;;2.30;;
68680;SDS011;55836;49.858;6.756;2023-12-20T05:40:18;5.10;;;2.60;;
68680;SDS011;55836;49.858;6.756;2023-12-20T05:42:44;5.30;;;2.27;;
68680;SDS011;55836;49.858;6.756;2023-12-20T05:45:10;3.97;;;2.67;;
68680;SDS011;55836;49.858;6.756;2023-12-20T05:47:36;3.57;;;2.57;;
68680;SDS011;55836;49.858;6.756;2023-12-20T05:50:02;2.53;;;2.33;;
68680;SDS011;55836;49.858;6.756;2023-12-20T05:52:29;3.47;;;2.50;;
68680;SDS011;55836;49.858;6.756;2023-12-20T05:54:55;3.47;;;2.53;;
68680;SDS011;55836;49.858;6.756;2023-12-20T05:57:22;4.03;;;2.77;;
68680;SDS011;55836;49.858;6.756;2023-12-20T05:59:48;4.23;;;2.50;;
68680;SDS011;55836;49.858;6.756;2023-12-20T06:02:14;5.50;;;2.70;;
68680;SDS011;55836;49.858;6.756;2023-12-20T06:04:43;4.00;;;2.67;;
68680;SDS011;55836;49.858;6.756;2023-12-20T06:07:13;6.13;;;3.67;;
68680;SDS011;55836;49.858;6.756;2023-12-20T06:09:39;4.87;;;2.30;;
68680;SDS011;55836;49.858;6.756;2023-12-20T06:12:05;6.27;;;3.97;;
68680;SDS011;55836;49.858;6.756;2023-12-20T06:14:31;4.20;;;2.83;;
68680;SDS011;55836;49.858;6.756;2023-12-20T06:16:57;4.70;;;3.20;;
68680;SDS011;55836;49.858;6.756;2023-12-20T06:19:23;4.83;;;2.60;;
68680;SDS011;55836;49.858;6.756;2023-12-20T06:21:49;2.90;;;2.20;;
68680;SDS011;55836;49.858;6.756;2023-12-20T06:24:15;8.63;;;2.40;;
68680;SDS011;55836;49.858;6.756;2023-12-20T06:26:41;2.43;;;2.23;;
68680;SDS011;55836;49.858;6.756;2023-12-20T06:29:07;3.00;;;2.47;;
68680;SDS011;55836;49.858;6.756;2023-12-20T06:31:33;2.57;;;2.10;;
68680;SDS011;55836;49.858;6.756;2023-12-20T06:33:59;7.70;;;3.57;;
68680;SDS011;55836;49.858;6.756;2023-12-20T06:36:26;7.03;;;4.20;;
68680;SDS011;55836;49.858;6.756;2023-12-20T06:38:52;4.90;;;4.07;;
68680;SDS011;55836;49.858;6.756;2023-12-20T06:41:18;7.20;;;4.87;;
68680;SDS011;55836;49.858;6.756;2023-12-20T06:43:44;6.13;;;4.80;;
68680;SDS011;55836;49.858;6.756;2023-12-20T06:46:10;9.13;;;5.13;;
68680;SDS011;55836;49.858;6.756;2023-12-20T06:48:38;6.57;;;3.77;;
68680;SDS011;55836;49.858;6.756;2023-12-20T06:51:06;11.73;;;6.53;;
68680;SDS011;55836;49.858;6.756;2023-12-20T06:53:32;8.13;;;3.97;;
68680;SDS011;55836;49.858;6.756;2023-12-20T06:55:58;5.50;;;3.77;;
68680;SDS011;55836;49.858;6.756;2023-12-20T06:58:24;6.80;;;3.67;;
68680;SDS011;55836;49.858;6.756;2023-12-20T07:00:50;5.27;;;3.47;;
68680;SDS011;55836;49.858;6.756;2023-12-20T07:03:16;4.83;;;3.03;;
68680;SDS011;55836;49.858;6.756;2023-12-20T07:05:43;4.23;;;3.00;;
68680;SDS011;55836;49.858;6.756;2023-12-20T07:08:09;6.03;;;3.70;;
68680;SDS011;55836;49.858;6.756;2023-12-20T07:10:35;11.00;;;5.20;;
68680;SDS011;55836;49.858;6.756;2023-12-20T07:13:02;5.57;;;3.77;;
68680;SDS011;55836;49.858;6.756;2023-12-20T07:15:28;13.40;;;4.00;;
68680;SDS011;55836;49.858;6.756;2023-12-20T07:17:54;9.47;;;4.87;;
68680;SDS011;55836;49.858;6.756;2023-12-20T07:20:20;7.73;;;4.80;;
68680;SDS011;55836;49.858;6.756;2023-12-20T07:22:46;6.77;;;4.50;;
68680;SDS011;55836;49.858;6.756;2023-12-20T07:25:12;6.17;;;3.37;;
68680;SDS011;55836;49.858;6.756;2023-12-20T07:27:38;8.03;;;4.77;;
68680;SDS011;55836;49.858;6.756;2023-12-20T07:30:04;4.93;;;3.80;;
68680;SDS011;55836;49.858;6.756;2023-12-20T07:32:30;8.23;;;4.53;;
68680;SDS011;55836;49.858;6.756;2023-12-20T07:34:57;5.17;;;3.30;;
68680;SDS011;55836;49.858;6.756;2023-12-20T07:37:23;5.67;;;3.73;;
68680;SDS011;55836;49.858;6.756;2023-12-20T07:39:49;6.40;;;3.80;;
68680;SDS011;55836;49.858;6.756;2023-12-20T07:42:15;7.00;;;3.40;;
68680;SDS011;55836;49.858;6.756;2023-12-20T07:44:41;6.27;;;3.20;;
68680;SDS011;55836;49.858;6.756;2023-12-20T07:47:07;7.37;;;3.40;;
68680;SDS011;55836;49.858;6.756;2023-12-20T07:49:33;4.07;;;2.63;;
68680;SDS011;55836;49.858;6.756;2023-12-20T07:51:59;6.10;;;4.07;;
68680;SDS011;55836;49.858;6.756;2023-12-20T07:54:25;5.93;;;3.43;;
68680;SDS011;55836;49.858;6.756;2023-12-20T07:56:51;7.10;;;3.47;;
68680;SDS011;55836;49.858;6.756;2023-12-20T07:59:17;7.47;;;3.87;;
68680;SDS011;55836;49.858;6.756;2023-12-20T08:01:43;4.13;;;3.17;;
68680;SDS011;55836;49.858;6.756;2023-12-20T08:04:09;4.77;;;3.20;;
68680;SDS011;55836;49.858;6.756;2023-12-20T08:06:35;8.90;;;4.70;;
68680;SDS011;55836;49.858;6.756;2023-12-20T08:09:01;7.17;;;4.40;;
68680;SDS011;55836;49.858;6.756;2023-12-20T08:11:27;7.43;;;4.10;;
68680;SDS011;55836;49.858;6.756;2023-12-20T08:13:53;4.67;;;2.67;;
68680;SDS011;55836;49.858;6.756;2023-12-20T08:16:19;6.27;;;3.67;;
68680;SDS011;55836;49.858;6.756;2023-12-20T08:18:45;4.57;;;3.80;;
68680;SDS011;55836;49.858;6.756;2023-12-20T08:21:11;8.73;;;3.73;;
68680;SDS011;55836;49.858;6.756;2023-12-20T08:23:37;14.67;;;7.53;;
68680;SDS011;55836;49.858;6.756;2023-12-20T08:26:07;7.90;;;4.23;;
68680;SDS011;55836;49.858;6.756;2023-12-20T08:28:33;9.63;;;4.13;;
68680;SDS011;55836;49.858;6.756;2023-12-20T08:30:59;7.67;;;3.60;;
68680;SDS011;55836;49.858;6.756;2023-12-20T08:33:25;5.67;;;3.50;;
68680;SDS011;55836;49.858;6.756;2023-12-20T08:35:51;4.30;;;3.10;;
68680;SDS011;55836;49.858;6.756;2023-12-20T08:38:17;7.33;;;5.70;;
68680;SDS011;55836;49.858;6.756;2023-12-20T08:40:44;9.03;;;5.43;;
68680;SDS011;55836;49.858;6.756;2023-12-20T08:43:10;6.83;;;3.60;;
68680;SDS011;55836;49.858;6.756;2023-12-20T08:45:36;8.40;;;4.13;;
68680;SDS011;55836;49.858;6.756;2023-12-20T08:48:02;11.60;;;3.93;;
68680;SDS011;55836;49.858;6.756;2023-12-20T08:50:28;6.93;;;4.10;;
68680;SDS011;55836;49.858;6.756;2023-12-20T08:52:54;6.80;;;3.77;;
68680;SDS011;55836;49.858;6.756;2023-12-20T08:55:20;9.13;;;3.83;;
68680;SDS011;55836;49.858;6.756;2023-12-20T08:57:46;7.93;;;3.60;;
68680;SDS011;55836;49.858;6.756;2023-12-20T09:00:12;5.33;;;3.83;;
68680;SDS011;55836;49.858;6.756;2023-12-20T09:02:38;8.67;;;4.77;;
68680;SDS011;55836;49.858;6.756;2023-12-20T09:05:04;10.33;;;3.83;;
68680;SDS011;55836;49.858;6.756;2023-12-20T09:07:30;6.97;;;3.83;;
68680;SDS011;55836;49.858;6.756;2023-12-20T09:09:57;8.40;;;3.73;;
68680;SDS011;55836;49.858;6.756;2023-12-20T09:12:23;7.43;;;5.03;;
68680;SDS011;55836;49.858;6.756;2023-12-20T09:14:49;5.90;;;4.83;;
68680;SDS011;55836;49.858;6.756;2023-12-20T09:17:16;5.27;;;3.63;;
68680;SDS011;55836;49.858;6.756;2023-12-20T09:19:42;6.33;;;3.60;;
68680;SDS011;55836;49.858;6.756;2023-12-20T09:22:08;7.67;;;4.10;;
68680;SDS011;55836;49.858;6.756;2023-12-20T09:24:34;9.87;;;4.70;;
68680;SDS011;55836;49.858;6.756;2023-12-20T09:27:00;6.50;;;4.27;;
68680;SDS011;55836;49.858;6.756;2023-12-20T09:29:27;8.50;;;4.23;;
68680;SDS011;55836;49.858;6.756;2023-12-20T09:31:53;4.87;;;3.90;;
68680;SDS011;55836;49.858;6.756;2023-12-20T09:34:19;5.67;;;3.53;;
68680;SDS011;55836;49.858;6.756;2023-12-20T09:36:46;6.50;;;4.30;;
68680;SDS011;55836;49.858;6.756;2023-12-20T09:39:15;6.50;;;3.80;;
68680;SDS011;55836;49.858;6.756;2023-12-20T09:41:44;7.57;;;4.10;;
68680;SDS011;55836;49.858;6.756;2023-12-20T09:44:15;7.93;;;4.83;;
68680;SDS011;55836;49.858;6.756;2023-12-20T09:46:43;11.10;;;3.90;;
68680;SDS011;55836;49.858;6.756;2023-12-20T09:49:10;8.70;;;4.00;;
68680;SDS011;55836;49.858;6.756;2023-12-20T09:51:36;7.23;;;4.13;;
68680;SDS011;55836;49.858;6.756;2023-12-20T09:54:03;7.90;;;4.20;;
68680;SDS011;55836;49.858;6.756;2023-12-20T09:56:29;7.37;;;4.07;;
68680;SDS011;55836;49.858;6.756;2023-12-20T09:58:55;7.73;;;4.20;;
68680;SDS011;55836;49.858;6.756;2023-12-20T10:01:22;6.40;;;3.73;;
68680;SDS011;55836;49.858;6.756;2023-12-20T10:03:48;6.50;;;4.23;;
68680;SDS011;55836;49.858;6.756;2023-12-20T10:06:16;8.53;;;4.37;;
68680;SDS011;55836;49.858;6.756;2023-12-20T10:08:42;8.83;;;3.73;;
68680;SDS011;55836;49.858;6.756;2023-12-20T10:11:08;7.03;;;4.40;;
68680;SDS011;55836;49.858;6.756;2023-12-20T10:13:38;8.73;;;4.93;;
68680;SDS011;55836;49.858;6.756;2023-12-20T10:16:05;6.40;;;4.33;;
68680;SDS011;55836;49.858;6.756;2023-12-20T10:18:32;8.90;;;3.87;;
68680;SDS011;55836;49.858;6.756;2023-12-20T10:20:58;7.30;;;4.43;;
68680;SDS011;55836;49.858;6.756;2023-12-20T10:23:24;7.20;;;4.60;;
68680;SDS011;55836;49.858;6.756;2023-12-20T10:25:59;4.67;;;4.13;;
68680;SDS011;55836;49.858;6.756;2023-12-20T10:28:26;8.47;;;3.80;;
68680;SDS011;55836;49.858;6.756;2023-12-20T10:30:55;5.30;;;3.80;;
68680;SDS011;55836;49.858;6.756;2023-12-20T10:33:27;6.63;;;4.10;;
68680;SDS011;55836;49.858;6.756;2023-12-20T10:35:54;7.97;;;4.17;;
68680;SDS011;55836;49.858;6.756;2023-12-20T10:38:21;6.20;;;4.00;;
68680;SDS011;55836;49.858;6.756;2023-12-20T10:40:48;7.00;;;4.33;;
68680;SDS011;55836;49.858;6.756;2023-12-20T10:43:14;6.50;;;4.03;;
68680;SDS011;55836;49.858;6.756;2023-12-20T10:45:44;9.03;;;4.73;;
68680;SDS011;55836;49.858;6.756;2023-12-20T10:48:10;5.77;;;3.93;;
68680;SDS011;55836;49.858;6.756;2023-12-20T10:50:39;9.07;;;3.77;;
68680;SDS011;55836;49.858;6.756;2023-12-20T10:53:06;6.10;;;3.57;;
68680;SDS011;55836;49.858;6.756;2023-12-20T10:55:33;11.53;;;4.13;;
68680;SDS011;55836;49.858;6.756;2023-12-20T10:58:03;5.90;;;4.53;;
68680;SDS011;55836;49.858;6.756;2023-12-20T11:00:30;6.97;;;3.70;;
68680;SDS011;55836;49.858;6.756;2023-12-20T11:02:58;5.87;;;3.47;;
68680;SDS011;55836;49.858;6.756;2023-12-20T11:05:34;9.27;;;5.17;;
68680;SDS011;55836;49.858;6.756;2023-12-20T11:08:05;8.93;;;4.63;;
68680;SDS011;55836;49.858;6.756;2023-12-20T11:13:22;6.43;;;3.23;;
68680;SDS011;55836;49.858;6.756;2023-12-20T11:15:49;8.47;;;3.97;;
68680;SDS011;55836;49.858;6.756;2023-12-20T11:18:15;6.47;;;2.77;;
68680;SDS011;55836;49.858;6.756;2023-12-20T11:20:41;7.77;;;3.60;;
68680;SDS011;55836;49.858;6.756;2023-12-20T11:23:08;6.40;;;3.37;;
68680;SDS011;55836;49.858;6.756;2023-12-20T11:25:46;7.60;;;3.33;;
68680;SDS011;55836;49.858;6.756;2023-12-20T11:28:13;6.00;;;3.60;;
68680;SDS011;55836;49.858;6.756;2023-12-20T11:30:45;4.77;;;2.77;;
68680;SDS011;55836;49.858;6.756;2023-12-20T11:33:12;5.90;;;2.93;;
68680;SDS011;55836;49.858;6.756;2023-12-20T11:35:39;4.67;;;2.50;;
68680;SDS011;55836;49.858;6.756;2023-12-20T11:38:09;5.47;;;2.87;;
68680;SDS011;55836;49.858;6.756;2023-12-20T11:40:38;6.47;;;4.20;;
68680;SDS011;55836;49.858;6.756;2023-12-20T11:43:04;5.23;;;2.70;;
68680;SDS011;55836;49.858;6.756;2023-12-20T11:45:30;6.40;;;2.80;;
68680;SDS011;55836;49.858;6.756;2023-12-20T11:47:57;3.43;;;2.40;;
68680;SDS011;55836;49.858;6.756;2023-12-20T11:50:23;6.20;;;2.23;;
68680;SDS011;55836;49.858;6.756;2023-12-20T11:52:51;6.03;;;2.57;;
68680;SDS011;55836;49.858;6.756;2023-12-20T11:55:18;5.03;;;2.30;;
68680;SDS011;55836;49.858;6.756;2023-12-20T11:57:44;4.83;;;3.00;;
68680;SDS011;55836;49.858;6.756;2023-12-20T12:00:10;9.70;;;3.33;;
68680;SDS011;55836;49.858;6.756;2023-12-20T12:02:36;6.17;;;2.90;;
68680;SDS011;55836;49.858;6.756;2023-12-20T12:05:03;11.80;;;7.83;;
68680;SDS011;55836;49.858;6.756;2023-12-20T12:07:31;8.50;;;6.53;;
68680;SDS011;55836;49.858;6.756;2023-12-20T12:09:58;16.07;;;7.53;;
68680;SDS011;55836;49.858;6.756;2023-12-20T12:12:24;7.73;;;5.17;;
68680;SDS011;55836;49.858;6.756;2023-12-20T12:14:51;8.17;;;4.90;;
68680;SDS011;55836;49.858;6.756;2023-12-20T12:17:18;7.67;;;4.93;;
68680;SDS011;55836;49.858;6.756;2023-12-20T12:19:43;8.63;;;2.50;;
68680;SDS011;55836;49.858;6.756;2023-12-20T12:22:10;6.77;;;2.50;;
68680;SDS011;55836;49.858;6.756;2023-12-20T12:24:43;5.57;;;2.87;;
68680;SDS011;55836;49.858;6.756;2023-12-20T12:27:09;3.87;;;2.53;;
68680;SDS011;55836;49.858;6.756;2023-12-20T12:29:36;6.33;;;2.73;;
68680;SDS011;55836;49.858;6.756;2023-12-20T12:32:08;2.67;;;2.00;;
68680;SDS011;55836;49.858;6.756;2023-12-20T12:34:35;4.27;;;2.00;;
68680;SDS011;55836;49.858;6.756;2023-12-20T12:37:02;3.67;;;1.83;;
68680;SDS011;55836;49.858;6.756;2023-12-20T12:39:29;3.73;;;2.17;;
68680;SDS011;55836;49.858;6.756;2023-12-20T12:41:55;3.73;;;2.13;;
68680;SDS011;55836;49.858;6.756;2023-12-20T12:44:22;5.20;;;2.73;;
68680;SDS011;55836;49.858;6.756;2023-12-20T12:46:51;6.53;;;2.10;;
68680;SDS011;55836;49.858;6.756;2023-12-20T12:49:19;6.20;;;2.40;;
68680;SDS011;55836;49.858;6.756;2023-12-20T12:51:46;6.03;;;2.73;;
68680;SDS011;55836;49.858;6.756;2023-12-20T12:54:12;4.90;;;2.60;;
68680;SDS011;55836;49.858;6.756;2023-12-20T12:56:40;7.27;;;2.70;;
68680;SDS011;55836;49.858;6.756;2023-12-20T12:59:06;6.70;;;2.27;;
68680;SDS011;55836;49.858;6.756;2023-12-20T13:01:32;5.57;;;2.40;;
68680;SDS011;55836;49.858;6.756;2023-12-20T13:03:58;9.27;;;2.60;;
68680;SDS011;55836;49.858;6.756;2023-12-20T13:06:26;6.33;;;2.37;;
68680;SDS011;55836;49.858;6.756;2023-12-20T13:08:52;5.67;;;2.40;;
68680;SDS011;55836;49.858;6.756;2023-12-20T13:11:18;5.30;;;2.20;;
68680;SDS011;55836;49.858;6.756;2023-12-20T13:13:44;5.67;;;2.50;;
68680;SDS011;55836;49.858;6.756;2023-12-20T13:16:10;5.43;;;2.70;;
68680;SDS011;55836;49.858;6.756;2023-12-20T13:18:36;5.40;;;2.17;;
68680;SDS011;55836;49.858;6.756;2023-12-20T13:21:02;5.03;;;2.43;;
68680;SDS011;55836;49.858;6.756;2023-12-20T13:23:28;4.47;;;2.50;;
68680;SDS011;55836;49.858;6.756;2023-12-20T13:25:54;5.43;;;2.40;;
68680;SDS011;55836;49.858;6.756;2023-12-20T13:28:20;5.13;;;2.07;;
68680;SDS011;55836;49.858;6.756;2023-12-20T13:30:46;3.33;;;2.20;;
68680;SDS011;55836;49.858;6.756;2023-12-20T13:33:12;4.43;;;2.10;;
68680;SDS011;55836;49.858;6.756;2023-12-20T13:35:38;3.70;;;2.30;;
68680;SDS011;55836;49.858;6.756;2023-12-20T13:38:04;5.77;;;2.70;;
68680;SDS011;55836;49.858;6.756;2023-12-20T13:40:30;3.83;;;2.63;;
68680;SDS011;55836;49.858;6.756;2023-12-20T13:42:56;4.13;;;2.30;;
68680;SDS011;55836;49.858;6.756;2023-12-20T13:45:22;5.93;;;2.47;;
68680;SDS011;55836;49.858;6.756;2023-12-20T13:47:50;2.23;;;1.97;;
68680;SDS011;55836;49.858;6.756;2023-12-20T13:50:16;4.77;;;2.37;;
68680;SDS011;55836;49.858;6.756;2023-12-20T13:52:42;3.07;;;1.70;;
68680;SDS011;55836;49.858;6.756;2023-12-20T13:55:08;5.17;;;2.13;;
68680;SDS011;55836;49.858;6.756;2023-12-20T13:57:35;7.00;;;2.43;;
68680;SDS011;55836;49.858;6.756;2023-12-20T14:00:05;2.13;;;1.87;;
68680;SDS011;55836;49.858;6.756;2023-12-20T14:02:31;3.07;;;2.27;;
68680;SDS011;55836;49.858;6.756;2023-12-20T14:04:57;3.17;;;1.80;;
68680;SDS011;55836;49.858;6.756;2023-12-20T14:07:23;3.50;;;1.70;;
68680;SDS011;55836;49.858;6.756;2023-12-20T14:09:49;3.93;;;2.07;;
68680;SDS011;55836;49.858;6.756;2023-12-20T14:12:15;4.97;;;2.50;;
68680;SDS011;55836;49.858;6.756;2023-12-20T14:14:41;3.50;;;2.10;;
68680;SDS011;55836;49.858;6.756;2023-12-20T14:17:07;4.20;;;2.60;;
68680;SDS011;55836;49.858;6.756;2023-12-20T14:19:33;4.60;;;2.00;;
68680;SDS011;55836;49.858;6.756;2023-12-20T14:21:59;6.20;;;2.50;;
68680;SDS011;55836;49.858;6.756;2023-12-20T14:24:26;4.17;;;2.97;;
68680;SDS011;55836;49.858;6.756;2023-12-20T14:26:53;4.97;;;1.90;;
68680;SDS011;55836;49.858;6.756;2023-12-20T14:29:19;4.47;;;2.17;;
68680;SDS011;55836;49.858;6.756;2023-12-20T14:31:45;2.70;;;2.20;;
68680;SDS011;55836;49.858;6.756;2023-12-20T14:34:11;3.30;;;2.27;;
68680;SDS011;55836;49.858;6.756;2023-12-20T14:36:37;5.23;;;1.73;;
68680;SDS011;55836;49.858;6.756;2023-12-20T14:39:03;7.67;;;2.47;;
68680;SDS011;55836;49.858;6.756;2023-12-20T14:41:30;8.43;;;2.30;;
68680;SDS011;55836;49.858;6.756;2023-12-20T14:43:56;2.70;;;2.10;;
68680;SDS011;55836;49.858;6.756;2023-12-20T14:46:22;6.37;;;2.77;;